createdAt,value
2022-08-30T00:01:03.026Z,19.47
2022-08-30T00:03:37.041Z,19.48
2022-08-30T00:06:08.547Z,19.40
2022-08-30T00:08:36.727Z,19.39
2022-08-30T00:11:08.404Z,19.50
2022-08-30T00:13:38.820Z,19.59
2022-08-30T00:16:07.063Z,19.67
2022-08-30T00:18:34.907Z,19.68
2022-08-30T00:21:02.078Z,19.63
2022-08-30T00:23:29.005Z,19.61
2022-08-30T00:25:55.897Z,19.56
2022-08-30T00:28:22.789Z,19.57
2022-08-30T00:30:49.788Z,19.57
2022-08-30T00:33:16.870Z,19.61
2022-08-30T00:35:44.228Z,19.37
2022-08-30T00:38:13.607Z,19.19
2022-08-30T00:40:44.393Z,19.11
2022-08-30T00:43:19.504Z,19.24
2022-08-30T00:45:47.148Z,19.30
2022-08-30T00:48:14.180Z,19.38
2022-08-30T00:50:44.626Z,19.41
2022-08-30T00:53:16.790Z,19.39
2022-08-30T00:55:44.292Z,19.42
2022-08-30T00:58:17.171Z,19.41
2022-08-30T01:00:44.427Z,19.44
2022-08-30T01:03:11.248Z,19.45
2022-08-30T01:05:38.825Z,19.48
2022-08-30T01:08:06.574Z,19.42
2022-08-30T01:10:37.238Z,19.41
2022-08-30T01:13:04.595Z,19.39
2022-08-30T01:15:32.804Z,19.35
2022-08-30T01:17:59.740Z,19.36
2022-08-30T01:20:37.293Z,19.35
2022-08-30T01:23:13.257Z,19.40
2022-08-30T01:25:42.471Z,19.41
2022-08-30T01:28:12.682Z,19.39
2022-08-30T01:30:40.479Z,19.21
2022-08-30T01:33:08.737Z,19.08
2022-08-30T01:35:50.612Z,18.98
2022-08-30T01:38:18.454Z,18.99
2022-08-30T01:40:45.379Z,18.90
2022-08-30T01:43:13.506Z,18.95
2022-08-30T01:45:40.598Z,18.89
2022-08-30T01:48:07.935Z,19.02
2022-08-30T01:50:34.884Z,19.02
2022-08-30T01:53:02.722Z,18.97
2022-08-30T01:55:29.670Z,18.90
2022-08-30T01:57:56.664Z,18.77
2022-08-30T02:00:23.716Z,18.80
2022-08-30T02:02:51.375Z,18.84
2022-08-30T02:05:18.369Z,18.87
2022-08-30T02:07:45.249Z,18.93
2022-08-30T02:10:12.139Z,18.95
2022-08-30T02:12:39.083Z,18.94
2022-08-30T02:15:06.609Z,18.91
2022-08-30T02:17:33.454Z,18.87
2022-08-30T02:20:00.306Z,18.84
2022-08-30T02:22:27.279Z,18.77
2022-08-30T02:24:54.173Z,18.61
2022-08-30T02:27:21.097Z,18.43
2022-08-30T02:29:47.964Z,18.56
2022-08-30T02:32:14.837Z,18.66
2022-08-30T02:34:41.728Z,18.73
2022-08-30T02:37:09.145Z,18.74
2022-08-30T02:39:36.053Z,18.71
2022-08-30T02:42:03.470Z,18.53
2022-08-30T02:44:30.365Z,18.39
2022-08-30T02:46:57.223Z,18.45
2022-08-30T02:49:33.275Z,18.38
2022-08-30T02:52:00.726Z,18.30
2022-08-30T02:54:28.525Z,18.20
2022-08-30T02:56:56.225Z,18.19
2022-08-30T02:59:23.139Z,18.21
2022-08-30T03:01:50.191Z,18.12
2022-08-30T03:04:17.134Z,18.02
2022-08-30T03:06:44.691Z,18.02
2022-08-30T03:09:11.507Z,18.10
2022-08-30T03:11:38.407Z,18.16
2022-08-30T03:14:05.401Z,18.26
2022-08-30T03:16:32.411Z,18.32
2022-08-30T03:18:59.354Z,18.44
2022-08-30T03:21:26.315Z,18.51
2022-08-30T03:23:53.160Z,18.46
2022-08-30T03:26:20.038Z,18.44
2022-08-30T03:28:46.897Z,18.28
2022-08-30T03:31:13.810Z,18.31
2022-08-30T03:33:40.860Z,18.07
2022-08-30T03:36:08.695Z,18.06
2022-08-30T03:38:36.254Z,18.17
2022-08-30T03:41:04.322Z,18.15
2022-08-30T03:43:33.480Z,17.99
2022-08-30T03:46:01.189Z,17.81
2022-08-30T03:48:29.517Z,17.87
2022-08-30T03:50:56.694Z,17.94
2022-08-30T03:53:25.732Z,17.89
2022-08-30T03:55:54.850Z,17.96
2022-08-30T03:58:22.433Z,18.03
2022-08-30T04:00:49.740Z,18.03
2022-08-30T04:03:18.481Z,18.10
2022-08-30T04:05:45.554Z,18.20
2022-08-30T04:08:12.450Z,18.25
2022-08-30T04:10:39.346Z,18.29
2022-08-30T04:13:06.187Z,18.32
2022-08-30T04:15:33.079Z,18.27
2022-08-30T04:18:00.049Z,18.40
2022-08-30T04:20:27.432Z,18.44
2022-08-30T04:22:54.408Z,18.26
2022-08-30T04:25:21.367Z,18.22
2022-08-30T04:27:49.333Z,18.38
2022-08-30T04:30:17.328Z,18.44
2022-08-30T04:32:44.441Z,18.34
2022-08-30T04:35:12.284Z,18.30
2022-08-30T04:37:39.461Z,18.35
2022-08-30T04:40:07.240Z,18.41
2022-08-30T04:42:35.207Z,18.48
2022-08-30T04:45:07.596Z,18.57
2022-08-30T04:47:34.689Z,18.59
2022-08-30T04:50:01.726Z,18.84
2022-08-30T04:52:28.812Z,19.13
2022-08-30T04:54:56.513Z,19.17
2022-08-30T04:57:24.155Z,19.14
2022-08-30T04:59:51.561Z,19.32
2022-08-30T05:02:18.853Z,19.87
2022-08-30T05:05:04.208Z,20.52
2022-08-30T05:07:32.039Z,20.06
2022-08-30T05:09:59.465Z,19.89
2022-08-30T05:12:26.584Z,19.71
2022-08-30T05:14:53.859Z,19.64
2022-08-30T05:17:20.700Z,19.47
2022-08-30T05:19:47.546Z,19.47
2022-08-30T05:22:14.385Z,19.67
2022-08-30T05:24:41.292Z,19.59
2022-08-30T05:27:08.144Z,19.96
2022-08-30T05:29:35.067Z,20.00
2022-08-30T05:32:02.169Z,20.09
2022-08-30T05:34:32.155Z,20.67
2022-08-30T05:37:02.068Z,20.73
2022-08-30T05:39:29.736Z,20.64
2022-08-30T05:42:16.789Z,20.69
2022-08-30T05:44:44.328Z,20.75
2022-08-30T05:47:11.334Z,20.82
2022-08-30T05:49:38.245Z,20.84
2022-08-30T05:52:05.445Z,21.03
2022-08-30T05:54:32.356Z,21.24
2022-08-30T05:56:59.722Z,21.42
2022-08-30T05:59:26.603Z,21.40
2022-08-30T06:01:56.959Z,21.42
2022-08-30T06:04:24.294Z,21.72
2022-08-30T06:06:51.167Z,22.01
2022-08-30T06:09:18.145Z,22.39
2022-08-30T06:11:45.819Z,22.60
2022-08-30T06:14:13.667Z,23.03
2022-08-30T06:16:40.989Z,22.99
2022-08-30T06:19:09.669Z,22.92
2022-08-30T06:21:37.295Z,23.27
2022-08-30T06:24:05.795Z,22.52
2022-08-30T06:26:41.422Z,22.24
2022-08-30T06:29:10.330Z,22.76
2022-08-30T06:31:37.428Z,22.67
2022-08-30T06:34:05.159Z,22.98
2022-08-30T06:36:32.608Z,22.31
2022-08-30T06:39:00.355Z,22.51
2022-08-30T06:41:29.367Z,23.04
2022-08-30T06:43:57.568Z,22.63
2022-08-30T06:46:27.321Z,23.12
2022-08-30T06:48:56.136Z,23.52
2022-08-30T06:51:32.167Z,23.82
2022-08-30T06:54:01.765Z,23.92
2022-08-30T06:56:28.725Z,23.46
2022-08-30T06:58:55.958Z,23.44
2022-08-30T07:01:25.698Z,23.46
2022-08-30T07:03:52.938Z,23.18
2022-08-30T07:06:20.392Z,24.01
2022-08-30T07:08:48.055Z,23.96
2022-08-30T07:11:15.118Z,24.06
2022-08-30T07:13:42.067Z,24.25
2022-08-30T07:16:11.728Z,24.46
2022-08-30T07:18:50.756Z,24.36
2022-08-30T07:21:24.625Z,24.74
2022-08-30T07:23:53.660Z,24.50
2022-08-30T07:26:24.993Z,24.52
2022-08-30T07:28:55.927Z,24.06
2022-08-30T07:31:23.816Z,24.50
2022-08-30T07:33:50.752Z,24.42
2022-08-30T07:36:17.788Z,24.25
2022-08-30T07:38:46.199Z,24.85
2022-08-30T07:41:28.080Z,24.92
2022-08-30T07:43:55.927Z,25.20
2022-08-30T07:46:24.012Z,24.34
2022-08-30T07:48:52.074Z,24.81
2022-08-30T07:51:20.965Z,24.99
2022-08-30T07:53:47.991Z,25.66
2022-08-30T07:56:15.487Z,25.60
2022-08-30T07:58:42.694Z,24.81
2022-08-30T08:01:11.239Z,25.05
2022-08-30T08:03:40.258Z,25.92
2022-08-30T08:06:08.578Z,25.86
2022-08-30T08:08:36.429Z,25.46
2022-08-30T08:11:17.762Z,25.92
2022-08-30T08:13:52.871Z,25.78
2022-08-30T08:16:23.680Z,26.35
2022-08-30T08:18:51.451Z,26.14
2022-08-30T08:21:18.401Z,26.36
2022-08-30T08:23:45.348Z,26.61
2022-08-30T08:26:12.227Z,26.47
2022-08-30T08:28:39.356Z,26.90
2022-08-30T08:31:36.015Z,26.97
2022-08-30T08:34:05.770Z,26.79
2022-08-30T08:36:34.465Z,26.42
2022-08-30T08:39:02.406Z,26.76
2022-08-30T08:41:54.219Z,26.72
2022-08-30T08:44:21.052Z,25.77
2022-08-30T08:46:53.551Z,26.19
2022-08-30T08:49:21.278Z,26.83
2022-08-30T08:52:06.976Z,26.82
2022-08-30T08:54:44.742Z,26.36
2022-08-30T08:57:15.272Z,26.07
2022-08-30T08:59:45.012Z,26.49
2022-08-30T09:02:30.586Z,26.96
2022-08-30T09:05:02.345Z,27.16
2022-08-30T09:07:37.646Z,27.66
2022-08-30T09:10:04.889Z,28.15
2022-08-30T09:12:31.987Z,28.28
2022-08-30T09:15:09.859Z,28.13
2022-08-30T09:18:10.197Z,28.67
2022-08-30T09:20:49.018Z,28.38
2022-08-30T09:23:15.814Z,28.06
2022-08-30T09:26:02.497Z,28.24
2022-08-30T09:28:32.358Z,28.55
2022-08-30T09:30:59.184Z,28.19
2022-08-30T09:33:26.128Z,29.05
2022-08-30T09:35:54.102Z,27.93
2022-08-30T09:38:29.002Z,28.35
2022-08-30T09:41:03.410Z,29.27
2022-08-30T09:43:34.345Z,29.72
2022-08-30T09:46:01.487Z,29.08
2022-08-30T09:48:40.826Z,27.75
2022-08-30T09:51:11.026Z,27.53
2022-08-30T09:53:55.712Z,28.83
2022-08-30T09:57:01.085Z,28.90
2022-08-30T09:59:50.731Z,29.38
2022-08-30T10:02:39.330Z,29.77
2022-08-30T10:05:16.660Z,29.94
2022-08-30T10:08:17.494Z,29.98
2022-08-30T10:10:49.730Z,29.82
2022-08-30T10:13:19.453Z,28.85
2022-08-30T10:15:52.165Z,28.58
2022-08-30T10:18:25.235Z,29.48
2022-08-30T10:20:58.502Z,29.84
2022-08-30T10:23:28.594Z,28.65
2022-08-30T10:26:10.230Z,28.63
2022-08-30T10:28:58.758Z,29.43
2022-08-30T10:31:27.532Z,29.85
2022-08-30T10:34:01.457Z,30.54
2022-08-30T10:36:33.269Z,29.95
2022-08-30T10:39:01.909Z,30.80
2022-08-30T10:41:31.339Z,31.13
2022-08-30T10:44:20.223Z,31.07
2022-08-30T10:47:18.566Z,31.44
2022-08-30T10:49:57.831Z,31.62
2022-08-30T10:52:39.574Z,31.94
2022-08-30T10:55:16.873Z,31.18
2022-08-30T10:57:45.186Z,30.85
2022-08-30T11:00:16.201Z,30.36
2022-08-30T11:03:17.747Z,30.35
2022-08-30T11:05:48.093Z,30.43
2022-08-30T11:08:46.910Z,29.65
2022-08-30T11:11:35.226Z,29.50
2022-08-30T11:14:05.805Z,29.06
2022-08-30T11:16:44.567Z,30.10
2022-08-30T11:19:40.791Z,30.32
2022-08-30T11:22:16.733Z,30.53
2022-08-30T11:25:10.594Z,30.81
2022-08-30T11:27:51.410Z,31.07
2022-08-30T11:30:26.580Z,31.21
2022-08-30T11:33:26.107Z,31.40
2022-08-30T11:35:53.773Z,31.06
2022-08-30T11:38:26.821Z,31.06
2022-08-30T11:40:56.692Z,30.97
2022-08-30T11:43:36.850Z,30.93
2022-08-30T11:46:27.131Z,30.86
2022-08-30T11:49:00.293Z,30.94
2022-08-30T11:51:30.063Z,30.98
2022-08-30T11:54:06.167Z,31.12
2022-08-30T11:57:06.883Z,31.14
2022-08-30T11:59:51.544Z,31.01
2022-08-30T12:02:59.368Z,30.53
2022-08-30T12:05:38.753Z,29.41
2022-08-30T12:08:38.722Z,29.40
2022-08-30T12:11:12.291Z,29.85
2022-08-30T12:13:42.179Z,30.62
2022-08-30T12:16:14.849Z,30.63
2022-08-30T12:18:52.036Z,30.29
2022-08-30T12:21:22.133Z,30.21
2022-08-30T12:24:05.150Z,30.58
2022-08-30T12:26:38.456Z,30.55
2022-08-30T12:29:26.289Z,30.26
2022-08-30T12:32:15.221Z,29.84
2022-08-30T12:34:42.367Z,29.54
2022-08-30T12:37:24.741Z,30.21
2022-08-30T12:40:15.354Z,30.56
2022-08-30T12:42:50.570Z,30.26
2022-08-30T12:45:21.209Z,30.95
2022-08-30T12:47:57.362Z,31.01
2022-08-30T12:50:28.645Z,30.44
2022-08-30T12:53:13.091Z,30.57
2022-08-30T12:55:55.232Z,30.23
2022-08-30T12:58:56.084Z,29.75
2022-08-30T13:01:29.322Z,30.63
2022-08-30T13:04:23.735Z,30.95
2022-08-30T13:06:58.352Z,30.53
2022-08-30T13:09:43.057Z,29.91
2022-08-30T13:12:24.359Z,30.39
2022-08-30T13:14:55.934Z,29.92
2022-08-30T13:17:26.147Z,30.56
2022-08-30T13:20:11.431Z,30.33
2022-08-30T13:22:40.198Z,29.64
2022-08-30T13:25:09.124Z,29.58
2022-08-30T13:27:37.854Z,29.41
2022-08-30T13:30:18.224Z,29.70
2022-08-30T13:32:45.085Z,29.95
2022-08-30T13:35:12.547Z,29.42
2022-08-30T13:37:49.775Z,29.61
2022-08-30T13:40:18.268Z,29.90
2022-08-30T13:42:45.248Z,29.25
2022-08-30T13:48:02.285Z,29.59
2022-08-30T13:50:30.566Z,29.37
2022-08-30T13:52:57.953Z,29.48
2022-08-30T13:55:25.142Z,28.74
2022-08-30T13:57:54.410Z,28.88
2022-08-30T14:00:23.476Z,29.22
2022-08-30T14:02:55.902Z,28.86
2022-08-30T14:11:02.322Z,28.92
2022-08-30T14:13:29.688Z,28.52
2022-08-30T14:18:45.459Z,28.45
2022-08-30T14:21:12.343Z,28.07
2022-08-30T14:23:39.263Z,28.03
2022-08-30T14:26:12.053Z,28.46
2022-08-30T14:28:39.257Z,28.59
2022-08-30T14:31:06.487Z,28.76
2022-08-30T14:33:33.495Z,28.88
2022-08-30T14:36:00.393Z,28.75
2022-08-30T14:38:27.310Z,28.29
2022-08-30T14:40:54.530Z,28.34
2022-08-30T14:43:21.424Z,28.73
2022-08-30T14:45:49.778Z,28.76
2022-08-30T14:48:17.731Z,28.78
2022-08-30T14:50:46.597Z,28.70
2022-08-30T14:53:13.451Z,28.67
2022-08-30T14:55:41.580Z,28.30
2022-08-30T14:58:10.772Z,28.72
2022-08-30T15:00:38.887Z,28.79
2022-08-30T15:03:05.850Z,28.85
2022-08-30T15:05:33.261Z,28.86
2022-08-30T15:08:00.177Z,28.89
2022-08-30T15:10:27.405Z,28.60
2022-08-30T15:12:54.324Z,28.45
2022-08-30T15:15:22.150Z,28.59
2022-08-30T15:17:49.455Z,28.66
2022-08-30T15:20:20.097Z,28.49
2022-08-30T15:22:47.886Z,28.33
2022-08-30T15:25:15.012Z,28.26
2022-08-30T15:27:41.934Z,28.29
2022-08-30T15:30:10.917Z,28.39
2022-08-30T15:32:38.079Z,28.38
2022-08-30T15:35:05.734Z,28.47
2022-08-30T15:37:34.831Z,28.43
2022-08-30T15:40:01.825Z,28.22
2022-08-30T15:42:33.738Z,28.26
2022-08-30T15:45:00.583Z,28.27
2022-08-30T15:47:27.750Z,28.31
2022-08-30T15:49:59.820Z,28.28
2022-08-30T15:52:27.125Z,28.28
2022-08-30T15:54:54.618Z,28.24
2022-08-30T15:57:21.954Z,28.06
2022-08-30T15:59:51.948Z,28.03
2022-08-30T16:02:18.972Z,28.06
2022-08-30T16:04:46.532Z,28.01
2022-08-30T16:07:13.789Z,27.94
2022-08-30T16:09:40.867Z,27.95
2022-08-30T16:12:09.818Z,27.74
2022-08-30T16:14:36.959Z,27.69
2022-08-30T16:17:04.881Z,27.49
2022-08-30T16:19:31.902Z,27.54
2022-08-30T16:21:58.890Z,27.53
2022-08-30T16:24:26.039Z,27.45
2022-08-30T16:26:53.236Z,27.38
2022-08-30T16:29:20.692Z,27.37
2022-08-30T16:31:48.045Z,27.30
2022-08-30T16:34:17.201Z,27.24
2022-08-30T16:36:44.142Z,27.23
2022-08-30T16:39:13.437Z,27.22
2022-08-30T16:41:41.755Z,27.09
2022-08-30T16:44:08.759Z,27.01
2022-08-30T16:46:38.708Z,26.98
2022-08-30T16:49:09.032Z,26.94
2022-08-30T16:51:36.687Z,26.87
2022-08-30T16:54:07.817Z,26.76
2022-08-30T16:56:35.393Z,26.67
2022-08-30T16:59:03.396Z,26.56
2022-08-30T17:01:34.826Z,26.49
2022-08-30T17:04:02.515Z,26.35
2022-08-30T17:06:29.328Z,26.22
2022-08-30T17:08:56.943Z,26.17
2022-08-30T17:11:24.972Z,26.04
2022-08-30T17:13:52.594Z,25.94
2022-08-30T17:16:27.291Z,25.90
2022-08-30T17:18:55.651Z,25.81
2022-08-30T17:21:23.235Z,25.75
2022-08-30T17:23:50.355Z,25.66
2022-08-30T17:26:18.625Z,25.57
2022-08-30T17:28:45.848Z,25.48
2022-08-30T17:31:12.853Z,25.41
2022-08-30T17:33:45.343Z,25.33
2022-08-30T17:36:12.508Z,25.21
2022-08-30T17:38:44.734Z,25.13
2022-08-30T17:41:12.230Z,25.04
2022-08-30T17:43:39.797Z,24.95
2022-08-30T17:46:12.977Z,24.87
2022-08-30T17:48:40.499Z,24.82
2022-08-30T17:51:07.810Z,24.74
2022-08-30T17:53:35.310Z,24.66
2022-08-30T17:56:04.254Z,24.60
2022-08-30T17:58:31.622Z,24.49
2022-08-30T18:01:24.596Z,24.41
2022-08-30T18:03:57.134Z,24.34
2022-08-30T18:06:28.868Z,24.27
2022-08-30T18:08:55.825Z,24.17
2022-08-30T18:11:23.155Z,24.10
2022-08-30T18:13:50.495Z,23.93
2022-08-30T18:16:21.446Z,23.87
2022-08-30T18:18:52.615Z,23.49
2022-08-30T18:21:23.980Z,22.74
2022-08-30T18:23:52.497Z,22.76
2022-08-30T18:26:19.611Z,22.45
2022-08-30T18:28:51.238Z,22.22
2022-08-30T18:31:18.182Z,22.02
2022-08-30T18:33:45.395Z,21.91
2022-08-30T18:36:12.626Z,21.84
2022-08-30T18:38:40.132Z,21.73
2022-08-30T18:41:13.877Z,21.73
2022-08-30T18:43:42.272Z,21.92
2022-08-30T18:46:12.031Z,22.06
2022-08-30T18:48:39.834Z,22.21
2022-08-30T18:51:16.027Z,22.29
2022-08-30T18:53:43.970Z,22.19
2022-08-30T18:56:11.536Z,22.22
2022-08-30T18:58:40.429Z,22.22
2022-08-30T19:01:12.725Z,22.19
2022-08-30T19:03:40.507Z,22.28
2022-08-30T19:06:11.506Z,22.18
2022-08-30T19:08:40.170Z,22.31
2022-08-30T19:11:09.054Z,22.32
2022-08-30T19:13:37.186Z,22.31
2022-08-30T19:16:05.974Z,22.34
2022-08-30T19:18:33.948Z,22.35
2022-08-30T19:21:03.706Z,22.25
2022-08-30T19:23:34.419Z,22.19
2022-08-30T19:26:01.396Z,22.13
2022-08-30T19:28:29.064Z,22.12
2022-08-30T19:30:55.941Z,22.11
2022-08-30T19:33:22.861Z,22.04
2022-08-30T19:35:51.348Z,22.09
2022-08-30T19:38:18.975Z,21.98
2022-08-30T19:40:50.082Z,21.99
2022-08-30T19:43:20.901Z,21.97
2022-08-30T19:45:53.331Z,21.85
2022-08-30T19:48:22.280Z,21.83
2022-08-30T19:50:49.547Z,21.75
2022-08-30T19:53:17.051Z,21.83
2022-08-30T19:55:44.499Z,21.81
2022-08-30T19:58:11.511Z,21.75
2022-08-30T20:00:39.960Z,21.47
2022-08-30T20:03:21.345Z,21.51
2022-08-30T20:05:48.329Z,21.68
2022-08-30T20:08:15.728Z,21.59
2022-08-30T20:10:43.893Z,21.65
2022-08-30T20:13:10.783Z,21.54
2022-08-30T20:15:37.963Z,21.58
2022-08-30T20:18:13.460Z,21.43
2022-08-30T20:20:48.588Z,21.50
2022-08-30T20:23:21.770Z,21.47
2022-08-30T20:25:55.449Z,21.51
2022-08-30T20:28:23.748Z,21.50
2022-08-30T20:30:51.423Z,21.43
2022-08-30T20:33:22.724Z,21.32
2022-08-30T20:35:51.596Z,21.23
2022-08-30T20:38:22.534Z,21.19
2022-08-30T20:40:52.241Z,21.09
2022-08-30T20:43:20.862Z,21.10
2022-08-30T20:45:48.325Z,21.08
2022-08-30T20:48:15.987Z,21.09
2022-08-30T20:50:43.709Z,21.12
2022-08-30T20:53:11.348Z,21.06
2022-08-30T20:55:45.801Z,21.04
2022-08-30T20:58:14.029Z,21.00
2022-08-30T21:00:41.158Z,20.84
2022-08-30T21:03:27.442Z,20.88
2022-08-30T21:05:56.653Z,20.83
2022-08-30T21:08:23.582Z,20.81
2022-08-30T21:10:50.397Z,20.77
2022-08-30T21:13:17.295Z,20.72
2022-08-30T21:15:47.098Z,20.69
2022-08-30T21:18:14.473Z,20.66
2022-08-30T21:20:41.685Z,20.53
2022-08-30T21:23:08.808Z,20.43
2022-08-30T21:25:38.812Z,20.43
2022-08-30T21:28:06.573Z,20.36
2022-08-30T21:30:34.581Z,20.34
2022-08-30T21:33:03.601Z,20.30
2022-08-30T21:35:49.126Z,20.21
2022-08-30T21:38:16.727Z,20.17
2022-08-30T21:40:44.053Z,20.11
2022-08-30T21:43:11.161Z,20.05
2022-08-30T21:45:38.978Z,20.06
2022-08-30T21:48:07.078Z,20.05
2022-08-30T21:50:34.189Z,20.05
2022-08-30T21:53:01.635Z,20.02
2022-08-30T21:55:28.441Z,19.99
2022-08-30T21:57:55.374Z,19.28
2022-08-30T22:00:22.370Z,18.92
2022-08-30T22:02:50.686Z,19.08
2022-08-30T22:05:20.584Z,19.17
2022-08-30T22:07:47.464Z,19.21
2022-08-30T22:10:14.270Z,19.24
2022-08-30T22:12:41.593Z,19.38
2022-08-30T22:15:09.014Z,19.41
2022-08-30T22:17:35.893Z,19.45
2022-08-30T22:20:04.346Z,19.58
2022-08-30T22:22:31.165Z,19.56
2022-08-30T22:24:57.994Z,19.51
2022-08-30T22:27:24.881Z,19.54
2022-08-30T22:29:51.924Z,19.46
2022-08-30T22:32:18.955Z,19.57
2022-08-30T22:34:46.310Z,19.55
2022-08-30T22:37:13.192Z,19.63
2022-08-30T22:39:40.005Z,19.74
2022-08-30T22:42:07.807Z,19.81
2022-08-30T22:44:34.653Z,19.84
2022-08-30T22:47:01.981Z,19.83
2022-08-30T22:49:28.858Z,19.55
2022-08-30T22:51:55.731Z,19.76
2022-08-30T22:54:22.689Z,19.78
2022-08-30T22:56:49.987Z,19.83
2022-08-30T22:59:16.839Z,19.78
2022-08-30T23:01:43.852Z,19.84
2022-08-30T23:04:12.002Z,19.73
2022-08-30T23:06:39.758Z,19.43
2022-08-30T23:09:07.268Z,19.53
2022-08-30T23:11:34.697Z,19.45
2022-08-30T23:14:02.743Z,19.38
2022-08-30T23:16:30.324Z,19.47
2022-08-30T23:18:57.268Z,19.58
2022-08-30T23:21:26.652Z,19.62
2022-08-30T23:24:13.324Z,19.63
2022-08-30T23:26:59.806Z,19.33
2022-08-30T23:29:45.650Z,19.26
2022-08-30T23:32:31.553Z,19.25
2022-08-30T23:35:17.019Z,19.25
2022-08-30T23:38:02.315Z,19.40
2022-08-30T23:40:47.911Z,19.23
2022-08-30T23:43:33.403Z,19.26
2022-08-30T23:46:19.787Z,19.35
2022-08-30T23:49:06.623Z,19.36
2022-08-30T23:51:53.016Z,19.37
2022-08-30T23:54:38.608Z,19.37
2022-08-30T23:57:24.640Z,19.36
